Latest Weather Observations for Sydney Olympic Park

IDN60801

Issued at 10:02 pm EDT Saturday 25 February 2017 (issued every 30 minutes, with the page automatically refreshed every 10 minutes)

About weather observations | Map of weather stations | Latest weather observations for NSW | Other Formats
Station Details ID: 066212 Name: SYDNEY OLYMPIC PARK AWS (ARCHERY CENTRE) Lat: -33.83 Lon: 151.07 Height: 4.0 m
Data from the previous 72 hours. | See also: Recent months at Sydney Olympic Park
Date/Time
EDT
Temp
°C
App
Temp
°C
Dew
Point
°C
Rel
Hum
%
Delta-T
°C
Wind Press
QNH
hPa
Press
MSL
hPa
Rain since
9am
mm
Dir  Spd
km/h
Gust
km/h
Spd
kts
Gust
kts
25/10:00pm 18.8 21.5 17.8 94 0.6 CALM 0 0 0 0 - - 0.0
25/09:30pm 18.6 21.1 17.3 92 0.8 CALM 0 0 0 0 - - 0.0
25/09:00pm 19.1 21.8 17.8 92 0.8 CALM 0 0 0 0 - - 0.0
25/08:30pm 19.4 22.0 18.4 94 0.6 WNW 2 7 1 4 - - 0.0
25/08:00pm 19.1 21.1 17.8 92 0.8 SSW 4 9 2 5 - - 0.0
25/07:42pm 19.0 19.9 17.5 91 0.9 SSW 9 15 5 8 - - 0.0
25/07:30pm 19.1 19.4 17.1 88 1.2 S 11 17 6 9 - - 0.0
25/07:25pm 19.3 19.6 16.9 86 1.5 S 11 17 6 9 - - 0.0
25/07:00pm 20.2 19.4 16.0 77 2.5 SSE 15 22 8 12 - - 0.0
25/06:30pm 20.2 20.1 16.0 77 2.5 SE 11 17 6 9 - - 0.0
25/06:00pm 19.6 20.0 16.3 81 2.0 SSE 9 17 5 9 - - 0.0
25/05:30pm 19.7 18.2 16.2 80 2.1 SSE 19 28 10 15 - - 0.0
25/05:00pm 20.3 19.1 16.1 77 2.5 SSE 17 24 9 13 - - 0.0
25/04:48pm 19.8 20.5 17.0 84 1.7 SSE 9 19 5 10 - - 0.0
25/04:30pm 19.7 19.0 16.5 82 1.9 S 15 28 8 15 - - 0.0
25/04:00pm 20.8 20.8 16.2 75 2.8 SSW 11 20 6 11 - - 0.0
25/03:30pm 20.1 19.6 15.9 77 2.5 SSE 13 19 7 10 - - 0.0
25/03:00pm 20.0 18.9 16.4 80 2.2 SSE 17 28 9 15 - - 0.0
25/02:30pm 20.6 19.8 16.2 76 2.6 SSE 15 22 8 12 - - 0.0
25/02:00pm 19.8 19.1 16.3 80 2.1 SSE 15 22 8 12 - - 0.0
25/01:30pm 20.4 19.2 16.2 77 2.5 S 17 26 9 14 - - 0.0
25/01:00pm 20.2 19.4 16.0 77 2.5 S 15 24 8 13 - - 0.0
25/12:30pm 20.2 19.1 16.4 79 2.3 SSE 17 26 9 14 - - 0.0
25/12:00pm 20.0 19.2 16.2 79 2.3 SSE 15 28 8 15 - - 0.0
25/11:30am 19.7 19.3 16.2 80 2.1 S 13 24 7 13 - - 0.0
25/11:00am 19.5 18.7 16.2 81 2.0 S 15 22 8 12 - - 0.0
25/10:30am 19.5 18.3 16.2 81 2.0 SSE 17 30 9 16 - - 0.0
25/10:00am 19.7 19.3 16.3 81 2.0 S 13 26 7 14 - - 0.0
25/09:30am 19.8 19.3 16.8 83 1.8 S 15 22 8 12 - - 0.0
25/09:00am 19.6 19.1 17.0 85 1.6 S 15 32 8 17 - - 0.0
25/08:30am 19.3 18.4 16.9 86 1.5 S 17 28 9 15 - - 0.0
25/08:00am 19.3 18.6 17.4 89 1.2 S 17 26 9 14 - - 0.0
25/07:30am 19.2 18.2 17.5 90 1.0 S 19 28 10 15 - - 0.0
25/07:00am 19.4 18.8 17.5 89 1.2 S 17 28 9 15 - - 0.0
25/06:30am 19.3 19.9 17.6 90 1.0 S 11 20 6 11 - - 0.0
25/06:00am 19.3 19.9 17.8 91 0.9 S 11 24 6 13 - - 0.0
25/05:30am 19.5 20.3 18.2 92 0.8 SSW 11 22 6 12 - - 0.0
25/05:00am 19.4 20.6 18.2 93 0.7 SSW 9 17 5 9 - - 0.0
25/04:30am 19.5 20.1 18.5 94 0.6 SSW 13 20 7 11 - - 0.0
25/04:19am 19.6 21.1 18.8 95 0.5 SSW 9 17 5 9 - - 0.0
25/04:00am 19.9 20.5 18.6 92 0.8 SSE 13 32 7 17 - - 0.0
25/03:54am 20.0 20.5 18.3 90 1.1 S 13 32 7 17 - - 0.0
25/03:30am 20.6 20.9 18.0 85 1.6 S 13 20 7 11 - - 0.0
25/03:00am 21.2 22.4 18.2 83 1.9 SSW 9 17 5 9 - - 0.0
25/02:30am 21.4 22.7 18.4 83 1.9 SSW 9 15 5 8 - - 0.0
25/02:00am 21.8 23.0 18.2 80 2.2 SSE 9 15 5 8 - - 0.0
25/01:30am 22.1 24.1 19.1 83 1.9 S 7 13 4 7 - - 0.0
25/01:00am 21.9 22.8 19.3 85 1.7 SE 13 22 7 12 - - 0.0
25/12:30am 22.6 24.8 19.2 81 2.2 SSE 6 11 3 6 - - 0.0
25/12:00am 22.5 24.3 20.4 88 1.4 E 11 17 6 9 - - 0.0
 
Date/Time
EDT
Temp
°C
App
Temp
°C
Dew
Point
°C
Rel
Hum
%
Delta-T
°C
Wind Press
QNH
hPa
Press
MSL
hPa
Rain since
9am
mm
Dir  Spd
km/h
Gust
km/h
Spd
kts
Gust
kts
24/11:30pm 22.8 25.2 19.6 82 2.0 ESE 6 13 3 7 - - 0.0
24/11:00pm 23.2 26.5 19.2 78 2.5 CALM 0 2 0 1 - - 0.0
24/10:30pm 23.0 25.0 19.2 79 2.4 SSE 7 11 4 6 - - 0.0
24/10:00pm 23.1 24.3 19.1 78 2.5 SE 11 13 6 7 - - 0.0
24/09:30pm 23.2 24.6 19.6 80 2.3 SE 11 17 6 9 - - 0.0
24/09:00pm 23.1 24.1 19.5 80 2.3 SE 13 19 7 10 - - 0.0
24/08:30pm 23.1 25.1 19.9 82 2.1 SE 9 13 5 7 - - 0.0
24/08:00pm 23.1 23.8 19.7 81 2.2 SSE 15 20 8 11 - - 0.0
24/07:30pm 23.8 25.0 19.9 79 2.5 SSE 13 20 7 11 - - 0.0
24/07:00pm 24.0 25.2 19.9 78 2.6 SSE 13 20 7 11 - - 0.0
24/06:30pm 24.2 24.6 19.9 77 2.8 SE 17 24 9 13 - - 0.0
24/06:00pm 25.1 25.2 19.2 70 3.8 E 17 24 9 13 - - 0.0
24/05:30pm 26.2 26.4 19.3 65 4.4 ESE 17 24 9 13 - - 0.0
24/05:00pm 25.5 25.7 19.4 69 3.9 ESE 17 24 9 13 - - 0.0
24/04:30pm 25.7 26.0 19.6 69 3.9 E 17 28 9 15 - - 0.0
24/04:00pm 25.3 25.9 19.4 70 3.8 SE 15 20 8 11 - - 0.0
24/03:30pm 25.6 25.9 19.5 69 3.9 ESE 17 22 9 12 - - 0.0
24/03:00pm 26.6 27.6 20.2 68 4.2 SE 15 26 8 14 - - 0.0
24/02:30pm 26.2 26.0 19.3 65 4.4 SE 19 28 10 15 - - 0.0
24/02:00pm 26.8 27.5 19.7 65 4.6 SE 15 20 8 11 - - 0.0
24/01:30pm 26.6 27.5 20.0 67 4.3 ESE 15 28 8 15 - - 0.0
24/01:00pm 25.9 26.1 19.3 67 4.2 ESE 17 26 9 14 - - 0.0
24/12:30pm 25.7 26.1 18.9 66 4.3 ESE 15 22 8 12 - - 0.0
24/12:00pm 26.4 27.5 20.5 70 3.9 ESE 15 22 8 12 - - 0.0
24/11:30am 25.2 26.3 19.6 71 3.6 ESE 13 19 7 10 - - 0.0
24/11:00am 25.6 27.1 19.7 70 3.8 ESE 11 19 6 10 - - 0.0
24/10:30am 25.4 27.0 20.0 72 3.5 ESE 11 15 6 8 - - 0.0
24/10:00am 24.1 25.3 19.8 77 2.8 SE 13 15 7 8 - - 0.0
24/09:30am 24.1 26.3 20.4 80 2.4 SE 9 13 5 7 - - 0.0
24/09:00am 23.9 25.5 20.0 79 2.5 ESE 11 15 6 8 - - 0.0
24/08:30am 23.2 25.2 20.0 82 2.1 SE 9 17 5 9 - - 0.0
24/08:00am 22.1 24.3 19.5 85 1.7 SE 7 9 4 5 - - 0.0
24/07:30am 21.5 24.3 19.6 89 1.2 SE 4 9 2 5 - - 0.0
24/07:00am 20.2 23.6 19.4 95 0.5 CALM 0 6 0 3 - - 0.0
24/06:30am 20.1 22.7 19.3 95 0.5 S 4 7 2 4 - - 0.0
24/06:00am 20.3 22.5 19.3 94 0.6 SSE 6 9 3 5 - - 0.0
24/05:30am 19.8 21.5 18.6 93 0.7 SE 7 9 4 5 - - 0.0
24/05:00am 19.5 21.8 18.5 94 0.6 SE 4 7 2 4 - - 0.0
24/04:33am 19.6 21.8 18.4 93 0.7 SE 4 7 2 4 - - 0.0
24/04:30am 19.6 21.4 18.4 93 0.7 SE 6 7 3 4 - - 0.0
24/04:15am 19.6 22.3 17.7 89 1.2 CALM 0 0 0 0 - - 0.0
24/04:00am 20.1 23.0 18.1 88 1.2 CALM 0 0 0 0 - - 0.0
24/03:30am 20.3 21.7 17.7 85 1.6 SE 7 9 4 5 - - 0.0
24/03:00am 21.5 24.2 17.7 79 2.3 CALM 0 7 0 4 - - 0.0
24/02:30am 21.5 23.3 17.5 78 2.5 NE 4 9 2 5 - - 0.0
24/02:00am 21.8 23.1 17.6 77 2.6 E 7 11 4 6 - - 0.0
24/01:30am 22.1 23.6 17.7 76 2.7 E 6 9 3 5 - - 0.0
24/01:00am 22.4 24.4 17.8 75 2.9 E 4 13 2 7 - - 0.0
24/12:30am 22.4 24.1 18.0 76 2.7 E 6 13 3 7 - - 0.0
24/12:00am 22.0 24.2 17.4 75 2.8 ESE 2 7 1 4 - - 0.0
 
Date/Time
EDT
Temp
°C
App
Temp
°C
Dew
Point
°C
Rel
Hum
%
Delta-T
°C
Wind Press
QNH
hPa
Press
MSL
hPa
Rain since
9am
mm
Dir  Spd
km/h
Gust
km/h
Spd
kts
Gust
kts
23/11:30pm 23.2 24.4 17.4 70 3.6 E 7 13 4 7 - - 0.0
23/11:00pm 23.2 24.9 17.2 69 3.7 ENE 4 9 2 5 - - 0.0
23/10:30pm 23.4 24.7 17.2 68 3.8 NE 6 9 3 5 - - 0.0
23/10:00pm 23.4 25.8 16.9 67 4.0 CALM 0 4 0 2 - - 0.0
23/09:30pm 23.9 25.9 16.9 65 4.3 NNE 2 7 1 4 - - 0.0
23/09:00pm 24.4 24.8 16.4 61 4.9 NE 9 15 5 8 - - 0.0
23/08:30pm 24.7 25.1 16.2 59 5.2 NE 9 17 5 9 - - 0.0
23/08:00pm 25.0 25.4 16.2 58 5.4 NE 9 15 5 8 - - 0.0
23/07:30pm 25.7 25.2 16.0 55 5.9 ENE 13 28 7 15 - - 0.0
23/07:00pm 26.5 25.8 16.4 53 6.2 ENE 15 24 8 13 - - 0.0
23/06:30pm 26.9 25.6 16.8 54 6.3 NE 19 35 10 19 - - 0.0
23/06:00pm 27.8 27.5 17.3 52 6.6 NE 15 30 8 16 - - 0.0
23/05:30pm 28.3 27.9 18.1 54 6.5 E 17 26 9 14 - - 0.0
23/05:00pm 28.9 28.4 17.7 50 7.1 E 17 28 9 15 - - 0.0
23/04:30pm 29.3 28.7 18.4 51 7.0 E 19 26 10 14 - - 0.0
23/04:00pm 29.8 29.5 18.3 50 7.4 E 17 28 9 15 - - 0.0
23/03:30pm 29.7 29.5 18.5 51 7.2 E 17 30 9 16 - - 0.0
23/03:00pm 29.7 29.1 18.5 51 7.2 E 19 28 10 15 - - 0.0
23/02:30pm 29.8 28.9 18.3 50 7.4 ESE 20 28 11 15 - - 0.0
23/02:00pm 29.8 29.3 18.6 51 7.2 ESE 19 28 10 15 - - 0.0
23/01:30pm 29.8 29.9 19.2 53 6.9 SE 17 24 9 13 - - 0.0
23/01:00pm 29.5 30.1 19.5 55 6.5 ESE 15 22 8 12 - - 0.0
23/12:30pm 30.0 31.6 19.1 52 7.1 E 9 15 5 8 - - 0.0
23/12:00pm 29.2 30.5 17.1 48 7.6 E 6 13 3 7 - - 0.0
23/11:30am 28.5 30.2 18.0 53 6.7 ENE 6 9 3 5 - - 0.0
23/11:00am 27.3 28.6 17.5 55 6.2 ENE 7 13 4 7 - - 0.0
23/10:30am 27.0 29.0 19.1 62 5.1 E 7 13 4 7 - - 0.0
23/10:00am 25.7 27.1 17.9 62 4.9 E 7 11 4 6 - - 0.0
23/09:30am 24.6 25.4 17.3 64 4.5 N 9 13 5 7 - - 0.0
23/09:00am 23.7 24.5 17.4 68 3.9 NNE 9 15 5 8 - - 0.0
23/08:30am 22.4 24.5 17.1 72 3.3 ESE 2 6 1 3 - - 0.0
23/08:00am 21.0 23.6 17.4 80 2.2 CALM 0 6 0 3 - - 0.0
23/07:30am 19.9 22.7 18.0 89 1.2 CALM 0 6 0 3 - - 0.0
23/07:00am 19.0 21.8 18.0 94 0.6 CALM 0 0 0 0 - - 0.0
23/06:30am 18.9 21.4 17.2 90 1.0 CALM 0 0 0 0 - - 0.0
23/06:00am 19.4 21.9 17.2 87 1.3 CALM 0 0 0 0 - - 0.0
23/05:30am 19.9 22.1 17.5 86 1.5 NNE 2 7 1 4 - - 0.0
23/05:00am 19.4 21.9 17.2 87 1.3 CALM 0 0 0 0 - - 0.0
23/04:30am 20.0 21.2 16.8 82 1.9 N 6 7 3 4 - - 0.0
23/04:00am 20.5 22.8 16.7 79 2.3 CALM 0 4 0 2 - - 0.0
23/03:30am 21.0 22.0 16.4 75 2.8 NE 6 9 3 5 - - 0.0
23/03:00am 21.6 22.2 16.8 74 2.9 NE 9 15 5 8 - - 0.0
23/02:30am 21.5 22.9 16.5 73 3.0 ENE 4 11 2 6 - - 0.0
23/02:00am 22.0 23.1 16.7 72 3.2 ENE 6 13 3 7 - - 0.0
23/01:30am 22.2 23.2 16.9 72 3.2 ENE 7 13 4 7 - - 0.0
23/01:00am 22.1 23.7 16.8 72 3.2 NE 4 9 2 5 - - 0.0
23/12:30am 21.9 23.8 16.6 72 3.2 NNE 2 9 1 5 - - 0.0
23/12:00am 22.3 24.0 16.3 69 3.6 ENE 2 7 1 4 - - 0.0
 
Date/Time
EDT
Temp
°C
App
Temp
°C
Dew
Point
°C
Rel
Hum
%
Delta-T
°C
Wind Press
QNH
hPa
Press
MSL
hPa
Rain since
9am
mm
Dir  Spd
km/h
Gust
km/h
Spd
kts
Gust
kts
22/11:30pm 22.5 23.3 16.3 68 3.8 N 7 11 4 6 - - 0.0
22/11:00pm 23.0 23.8 16.3 66 4.1 NNE 7 15 4 8 - - 0.0
22/10:30pm 23.2 24.3 16.5 66 4.1 NE 6 13 3 7 - - 0.0

Other Formats:

Comma delimited format used in spreadsheet applications
http://www.bom.gov.au/fwo/IDN60801/IDN60801.95765.axf

JavaScript Object Notation format (JSON) in row-major order
http://www.bom.gov.au/fwo/IDN60801/IDN60801.95765.json